Time;durP1;ratioP1;P1;durP2;ratioP2;P2;SDS_P1;SDS_P2;PMS_P1;PMS_P2;Temp;Humidity;BMP_temperature;BMP_pressure;BME280_temperature;BME280_humidity;BME280_pressure;Samples;Min_cycle;Max_cycle;Signal;HPM_P1;HPM_P2
2021/11/23 00:02:04;;;;;;;;;4.00;4.00;;;;;20.77;35.47;102446.69;4997710;28;51094;-52
2021/11/23 00:04:30;;;;;;;;;5.50;4.00;;;;;20.75;35.88;102444.13;5005757;27;51047;-48
2021/11/23 00:06:55;;;;;;;;;4.00;4.00;;;;;20.73;35.62;102440.69;5003381;28;51154;-51
2021/11/23 00:09:20;;;;;;;;;4.75;4.25;;;;;20.71;35.45;102438.13;5004232;28;51134;-51
2021/11/23 00:11:46;;;;;;;;;4.75;4.75;;;;;20.69;35.47;102442.09;5005459;27;51109;-49
2021/11/23 00:14:11;;;;;;;;;3.50;3.50;;;;;20.66;35.95;102436.97;5006426;28;51817;-49
2021/11/23 00:16:36;;;;;;;;;3.75;3.75;;;;;20.65;35.49;102438.03;5002721;27;51029;-51
2021/11/23 00:19:02;;;;;;;;;5.50;5.00;;;;;20.62;35.99;102428.22;5005744;28;51559;-51
2021/11/23 00:21:27;;;;;;;;;4.00;3.75;;;;;20.61;35.90;102431.16;5005236;27;51208;-47
2021/11/23 00:23:52;;;;;;;;;4.25;4.00;;;;;20.59;36.01;102433.25;5003562;28;59612;-51
2021/11/23 00:26:18;;;;;;;;;4.00;4.00;;;;;20.58;35.98;102434.28;5007840;28;51280;-50
2021/11/23 00:28:45;;;;;;;;;4.50;4.00;;;;;20.55;35.42;102430.03;5009336;28;51561;-49
2021/11/23 00:31:10;;;;;;;;;4.75;4.50;;;;;20.53;35.85;102437.59;4999729;28;51101;-48
2021/11/23 00:33:42;;;;;;;;;4.00;3.00;;;;;20.51;35.70;102434.16;5007879;28;50957;-51
2021/11/23 00:36:07;;;;;;;;;5.25;3.75;;;;;20.50;35.55;102431.59;4999052;27;51025;-51
2021/11/23 00:38:34;;;;;;;;;4.75;4.00;;;;;20.48;35.58;102423.53;5006447;27;51032;-51
2021/11/23 00:40:59;;;;;;;;;5.00;5.00;;;;;20.46;35.76;102426.47;5011661;28;51034;-47
2021/11/23 00:43:24;;;;;;;;;4.00;3.00;;;;;20.45;35.75;102426.66;4996754;28;51076;-50
2021/11/23 00:45:50;;;;;;;;;3.25;3.25;;;;;20.44;35.79;102435.97;5005642;28;51115;-50
2021/11/23 00:48:15;;;;;;;;;4.00;4.00;;;;;20.41;35.83;102428.88;4994789;28;51465;-50
2021/11/23 00:50:41;;;;;;;;;4.25;3.25;;;;;20.40;35.81;102426.31;5003948;28;51314;-50
2021/11/23 00:53:07;;;;;;;;;7.25;6.25;;;;;20.39;36.03;102424.59;4998379;27;50966;-49
2021/11/23 00:55:33;;;;;;;;;4.50;4.25;;;;;20.35;35.77;102420.50;5004943;28;51142;-51
2021/11/23 00:57:58;;;;;;;;;4.50;4.50;;;;;20.35;35.92;102432.38;5004452;28;51063;-50
2021/11/23 01:00:24;;;;;;;;;4.00;4.00;;;;;20.35;35.77;102432.38;5003012;28;51011;-49
2021/11/23 01:02:50;;;;;;;;;3.75;3.75;;;;;20.32;35.82;102430.00;5000852;28;51931;-46
2021/11/23 01:05:15;;;;;;;;;4.00;3.50;;;;;20.31;35.94;102419.16;5002400;28;51016;-46
2021/11/23 01:07:41;;;;;;;;;5.00;3.00;;;;;20.30;35.84;102422.94;5002650;28;51220;-48
2021/11/23 01:10:09;;;;;;;;;5.50;3.75;;;;;20.27;35.65;102415.91;5004069;28;51541;-51
2021/11/23 01:12:35;;;;;;;;;6.00;4.00;;;;;20.26;35.62;102425.22;5001326;28;51161;-50
2021/11/23 01:15:02;;;;;;;;;4.75;3.75;;;;;20.25;35.55;102419.91;5003214;28;51278;-51
2021/11/23 01:17:28;;;;;;;;;5.75;3.00;;;;;20.24;35.61;102423.69;5005545;28;51192;-50
2021/11/23 01:19:53;;;;;;;;;4.00;4.00;;;;;20.23;35.69;102424.72;5007796;27;51036;-50
2021/11/23 01:22:18;;;;;;;;;3.00;3.00;;;;;20.21;35.68;102424.88;5004534;27;51798;-50
2021/11/23 01:24:44;;;;;;;;;3.25;3.00;;;;;20.19;35.82;102422.31;5000314;28;50945;-49
2021/11/23 01:27:09;;;;;;;;;5.00;3.75;;;;;20.18;35.79;102425.25;5003281;28;51542;-51
2021/11/23 01:29:36;;;;;;;;;4.00;4.00;;;;;20.17;35.63;102424.41;5004332;28;51000;-46
2021/11/23 01:32:02;;;;;;;;;4.00;4.00;;;;;20.16;35.81;102422.69;5012090;28;51196;-46
2021/11/23 01:34:28;;;;;;;;;5.50;3.50;;;;;20.15;35.97;102421.00;5004831;28;50966;-51
2021/11/23 01:36:54;;;;;;;;;4.00;4.00;;;;;20.13;35.70;102419.47;4998258;28;51109;-51
2021/11/23 01:39:19;;;;;;;;;4.00;3.75;;;;;20.13;35.87;102427.72;5002597;28;51147;-49
2021/11/23 01:41:45;;;;;;;;;4.25;3.50;;;;;20.11;35.68;102422.41;5001445;28;51825;-49
2021/11/23 01:44:10;;;;;;;;;4.75;3.50;;;;;20.08;35.88;102425.50;5003490;28;51163;-50
2021/11/23 01:46:36;;;;;;;;;3.00;3.00;;;;;20.08;35.77;102417.25;5007230;27;51070;-47
2021/11/23 01:49:02;;;;;;;;;5.50;3.00;;;;;20.08;35.89;102425.50;5003705;28;51012;-50
2021/11/23 01:51:27;;;;;;;;;4.00;2.50;;;;;20.06;35.79;102427.56;5001200;28;51291;-48
2021/11/23 01:53:53;;;;;;;;;5.00;3.00;;;;;20.05;35.58;102427.75;4984085;28;51077;-50
2021/11/23 01:56:18;;;;;;;;;4.75;4.50;;;;;20.03;35.63;102427.94;5002153;28;51109;-50
2021/11/23 01:58:43;;;;;;;;;3.75;3.00;;;;;20.02;35.76;102426.25;5006116;28;51263;-50
2021/11/23 02:01:09;;;;;;;;;5.25;4.00;;;;;20.02;35.55;102430.88;5002844;28;51938;-48
2021/11/23 02:03:36;;;;;;;;;2.50;2.50;;;;;20.00;35.71;102432.94;5005890;28;51065;-50
2021/11/23 02:06:02;;;;;;;;;3.25;3.00;;;;;19.99;35.90;102422.97;5001826;28;51014;-50
2021/11/23 02:08:28;;;;;;;;;3.00;3.00;;;;;19.97;35.79;102427.81;4999854;28;51224;-49
2021/11/23 02:10:54;;;;;;;;;3.00;3.00;;;;;19.97;35.65;102430.56;5002461;28;51842;-48
2021/11/23 02:13:20;;;;;;;;;3.25;2.50;;;;;19.95;35.53;102425.25;5004137;28;51167;-50
2021/11/23 02:15:45;;;;;;;;;3.00;3.00;;;;;19.94;35.49;102429.03;5007904;28;51223;-49
2021/11/23 02:18:17;;;;;;;;;3.75;3.75;;;;;19.93;35.78;102446.56;5008821;27;51347;-48
2021/11/23 02:20:43;;;;;;;;;3.25;3.25;;;;;19.93;35.91;102437.47;5003864;28;51968;-49
2021/11/23 02:23:08;;;;;;;;;4.75;3.75;;;;;19.91;36.14;102443.16;4999236;28;51120;-49
2021/11/23 02:25:34;;;;;;;;;6.00;4.00;;;;;19.91;36.13;102440.41;5001472;28;51169;-50
2021/11/23 02:28:00;;;;;;;;;4.00;4.00;;;;;19.91;35.97;102437.66;5014919;28;51311;-50
2021/11/23 02:30:26;;;;;;;;;3.25;3.25;;;;;19.91;35.97;102437.66;5003366;27;51116;-51
2021/11/23 02:32:52;;;;;;;;;4.50;4.00;;;;;19.90;35.88;102430.41;5011853;27;51174;-51
2021/11/23 02:35:19;;;;;;;;;4.00;4.00;;;;;19.89;35.70;102435.06;5003694;28;51235;-48
2021/11/23 02:37:49;;;;;;;;;5.00;5.00;;;;;19.89;35.75;102428.69;5019143;27;51215;-49
2021/11/23 02:40:15;;;;;;;;;4.00;4.00;;;;;19.88;36.19;102419.59;5011636;28;51861;-49
2021/11/23 02:42:41;;;;;;;;;3.25;3.00;;;;;19.88;35.78;102427.00;5016235;28;51169;-48
2021/11/23 02:45:08;;;;;;;;;3.50;3.50;;;;;19.85;36.03;102410.84;5004957;27;51171;-49
2021/11/23 02:47:36;;;;;;;;;3.50;3.50;;;;;19.84;36.05;102420.16;5005104;28;51168;-50
2021/11/23 02:50:03;;;;;;;;;3.75;3.00;;;;;19.84;35.91;102425.66;5004202;28;52746;-48
2021/11/23 02:52:28;;;;;;;;;4.50;4.25;;;;;19.82;35.91;102419.47;5001692;27;51158;-50
2021/11/23 02:54:59;;;;;;;;;5.00;4.75;;;;;19.81;35.89;102415.03;5002451;28;51051;-49
2021/11/23 02:57:26;;;;;;;;;3.00;3.00;;;;;19.80;35.99;102424.28;5005484;28;51741;-48
2021/11/23 02:59:51;;;;;;;;;5.00;3.00;;;;;19.80;36.09;102418.78;5001750;27;52150;-51
2021/11/23 03:02:17;;;;;;;;;3.50;3.50;;;;;19.79;36.07;102417.06;4991872;27;51151;-50
2021/11/23 03:04:42;;;;;;;;;3.75;3.75;;;;;19.77;36.11;102413.66;4991870;28;51146;-46
2021/11/23 03:07:12;;;;;;;;;4.50;3.75;;;;;19.77;35.89;102416.41;5004559;27;51292;-50
2021/11/23 03:09:38;;;;;;;;;3.50;3.00;;;;;19.75;35.96;102407.47;5004194;28;51819;-47
2021/11/23 03:12:04;;;;;;;;;3.50;3.50;;;;;19.75;36.03;102413.81;5003560;28;51019;-51
2021/11/23 03:14:29;;;;;;;;;4.00;4.00;;;;;19.74;36.07;102414.00;5002555;28;51299;-51
2021/11/23 03:16:54;;;;;;;;;4.25;4.25;;;;;19.73;35.86;102406.81;5003420;27;51393;-51
2021/11/23 03:19:20;;;;;;;;;3.00;3.00;;;;;19.72;36.18;102405.94;5005079;28;52607;-50
2021/11/23 03:21:45;;;;;;;;;3.25;3.25;;;;;19.71;35.82;102406.13;5010994;27;51064;-52
2021/11/23 03:24:11;;;;;;;;;4.50;4.50;;;;;19.70;35.81;102391.53;5002494;28;51143;-49
2021/11/23 03:26:36;;;;;;;;;4.50;3.75;;;;;19.70;35.95;102399.78;5005195;27;51719;-49
2021/11/23 03:29:02;;;;;;;;;3.00;3.00;;;;;19.68;36.22;102396.31;5009352;28;51873;-51
2021/11/23 03:31:27;;;;;;;;;3.25;3.25;;;;;19.68;35.79;102384.47;5002726;28;51295;-51
2021/11/23 03:33:53;;;;;;;;;3.25;3.25;;;;;19.66;36.19;102392.06;5003768;28;51008;-50
2021/11/23 03:36:18;;;;;;;;;4.00;4.00;;;;;19.65;36.14;102379.34;4999563;27;51078;-49
2021/11/23 03:38:43;;;;;;;;;2.75;2.75;;;;;19.64;36.13;102394.13;5005841;28;51750;-50
2021/11/23 03:41:09;;;;;;;;;6.00;5.00;;;;;19.64;36.01;102385.88;5000789;28;51171;-50
2021/11/23 03:43:34;;;;;;;;;4.25;3.25;;;;;19.63;36.18;102389.66;5007283;28;51215;-52
2021/11/23 03:45:59;;;;;;;;;4.75;4.25;;;;;19.63;36.03;102386.94;5001205;28;51059;-48
2021/11/23 03:48:25;;;;;;;;;4.25;4.25;;;;;19.60;36.04;102386.25;5001137;28;52256;-50
2021/11/23 03:50:50;;;;;;;;;4.25;3.25;;;;;19.61;36.01;102384.34;5009280;28;51362;-49
2021/11/23 03:53:15;;;;;;;;;2.75;2.75;;;;;19.60;36.01;102371.66;5005212;28;51574;-49
2021/11/23 03:55:48;;;;;;;;;3.25;3.25;;;;;19.59;36.20;102383.66;5003294;28;51129;-47
2021/11/23 03:58:13;;;;;;;;;5.25;4.75;;;;;19.58;36.01;102387.44;5009876;28;52838;-48
2021/11/23 04:00:38;;;;;;;;;3.25;3.25;;;;;19.57;35.96;102378.34;5003664;28;51489;-51
2021/11/23 04:03:04;;;;;;;;;4.75;3.25;;;;;19.57;36.03;102377.50;5003078;28;51194;-50
2021/11/23 04:05:29;;;;;;;;;4.25;3.25;;;;;19.55;36.10;102385.91;5010262;27;51218;-50
2021/11/23 04:07:55;;;;;;;;;4.00;4.00;;;;;19.55;36.10;102387.78;4997495;28;51143;-48
2021/11/23 04:10:21;;;;;;;;;5.00;4.25;;;;;19.54;36.00;102386.06;5008739;28;51152;-49
2021/11/23 04:12:47;;;;;;;;;3.25;3.25;;;;;19.53;36.35;102387.97;5001999;28;51086;-50
2021/11/23 04:15:13;;;;;;;;;5.00;5.00;;;;;19.53;36.13;102387.09;5001518;27;51191;-48
2021/11/23 04:17:38;;;;;;;;;2.75;2.75;;;;;19.51;36.20;102392.78;5003000;28;51128;-49
2021/11/23 04:20:06;;;;;;;;;4.00;3.00;;;;;19.51;36.26;102401.03;5001216;27;51104;-46
2021/11/23 04:22:32;;;;;;;;;4.00;3.00;;;;;19.51;35.99;102406.53;4995248;28;51000;-50
2021/11/23 04:24:57;;;;;;;;;3.00;3.00;;;;;19.50;36.12;102407.56;5016739;28;51056;-48
2021/11/23 04:27:22;;;;;;;;;4.75;4.75;;;;;19.48;36.18;102404.13;5018227;27;51299;-50
2021/11/23 04:29:48;;;;;;;;;4.00;4.00;;;;;19.48;36.30;102400.50;5005615;28;50985;-50
2021/11/23 04:32:13;;;;;;;;;4.75;4.75;;;;;19.47;36.23;102399.66;5011486;27;51138;-49
2021/11/23 04:34:38;;;;;;;;;5.00;5.00;;;;;19.46;36.08;102392.44;5002388;27;50981;-50
2021/11/23 04:37:04;;;;;;;;;4.00;4.00;;;;;19.46;36.26;102386.09;5011024;28;51123;-47
2021/11/23 04:39:29;;;;;;;;;4.00;4.00;;;;;19.44;36.15;102394.53;5008028;28;51150;-51
2021/11/23 04:41:55;;;;;;;;;3.25;3.25;;;;;19.44;36.05;102397.28;5004169;28;51141;-51
2021/11/23 04:44:20;;;;;;;;;4.50;4.00;;;;;19.43;36.29;102397.47;5010151;28;51314;-51
2021/11/23 04:46:46;;;;;;;;;5.75;4.25;;;;;19.42;36.12;102407.59;5009660;28;52360;-46
2021/11/23 04:49:11;;;;;;;;;5.25;3.75;;;;;19.41;36.17;102408.63;5009970;28;51039;-49
2021/11/23 04:51:36;;;;;;;;;4.50;3.00;;;;;19.41;36.17;102400.38;5003458;27;51231;-49
2021/11/23 04:54:03;;;;;;;;;5.00;3.50;;;;;19.40;36.11;102398.69;5009192;28;51156;-50
2021/11/23 04:56:29;;;;;;;;;3.50;3.50;;;;;19.40;36.42;102415.16;5008256;28;52121;-51
2021/11/23 04:58:55;;;;;;;;;4.25;4.00;;;;;19.39;36.22;102404.34;5000135;27;51122;-50
2021/11/23 05:01:20;;;;;;;;;3.50;3.50;;;;;19.38;35.98;102417.22;5004182;28;51187;-49
2021/11/23 05:03:46;;;;;;;;;4.75;4.25;;;;;19.38;36.26;102405.38;5002664;28;51099;-50
2021/11/23 05:06:11;;;;;;;;;4.50;3.50;;;;;19.37;35.89;102401.75;5003121;27;51847;-51
2021/11/23 05:08:37;;;;;;;;;7.00;4.75;;;;;19.36;36.22;102402.78;5004339;28;51704;-51
2021/11/23 05:11:03;;;;;;;;;6.50;4.50;;;;;19.35;36.30;102403.84;4996734;28;51808;-46
2021/11/23 05:13:28;;;;;;;;;2.75;2.75;;;;;19.34;36.31;102410.38;5007941;28;51392;-51
2021/11/23 05:15:53;;;;;;;;;5.00;4.00;;;;;19.33;36.23;102401.25;5009400;27;51705;-49
2021/11/23 05:18:19;;;;;;;;;2.75;2.75;;;;;19.33;35.76;102414.16;5003007;28;51243;-52
2021/11/23 05:20:44;;;;;;;;;3.00;3.00;;;;;19.33;36.19;102408.66;5003700;28;51096;-48
2021/11/23 05:23:09;;;;;;;;;4.25;4.25;;;;;19.32;36.15;102401.44;5005040;28;51253;-51
2021/11/23 05:25:35;;;;;;;;;4.75;4.75;;;;;19.31;36.19;102403.34;5006582;28;51939;-49
2021/11/23 05:28:00;;;;;;;;;5.50;4.50;;;;;19.31;36.13;102400.59;5009403;28;51235;-47
2021/11/23 05:30:25;;;;;;;;;3.75;3.75;;;;;19.30;36.04;102415.38;5003918;27;51154;-49
2021/11/23 05:32:52;;;;;;;;;4.50;4.50;;;;;19.30;36.18;102414.50;5006945;28;51076;-51
2021/11/23 05:35:18;;;;;;;;;4.50;3.25;;;;;19.27;36.11;102418.44;5002391;28;52938;-46
2021/11/23 05:37:44;;;;;;;;;4.25;4.00;;;;;19.29;36.27;102418.31;4995325;28;51153;-47
2021/11/23 05:40:10;;;;;;;;;4.75;3.00;;;;;19.28;35.99;102427.56;5011422;27;51096;-50
2021/11/23 05:42:35;;;;;;;;;6.75;5.00;;;;;19.26;36.20;102430.47;5003576;28;51285;-49
2021/11/23 05:45:01;;;;;;;;;3.50;3.50;;;;;19.26;36.36;102427.72;5007082;28;51933;-47
2021/11/23 05:47:27;;;;;;;;;5.00;5.00;;;;;19.25;36.39;102431.50;5002455;28;51028;-48
2021/11/23 05:49:52;;;;;;;;;5.50;4.75;;;;;19.25;35.96;102430.66;4996739;28;51193;-49
2021/11/23 05:52:18;;;;;;;;;2.75;2.75;;;;;19.24;36.23;102432.53;5005034;28;51348;-46
2021/11/23 05:54:45;;;;;;;;;4.50;4.50;;;;;19.24;36.21;102437.19;5004656;28;51870;-48
2021/11/23 05:57:12;;;;;;;;;5.00;4.00;;;;;19.23;36.21;102435.47;5004865;28;51439;-48
2021/11/23 05:59:37;;;;;;;;;7.00;4.50;;;;;19.23;36.21;102429.97;4997345;28;51191;-50
2021/11/23 06:02:03;;;;;;;;;3.00;3.00;;;;;19.23;36.26;102449.22;5004522;28;51110;-51
2021/11/23 06:04:28;;;;;;;;;3.75;3.75;;;;;19.22;35.96;102444.75;5003551;28;51020;-50
2021/11/23 06:06:53;;;;;;;;;3.00;3.00;;;;;19.21;36.32;102443.03;5005574;27;51031;-49
2021/11/23 06:09:19;;;;;;;;;3.00;3.00;;;;;19.21;36.18;102448.53;4996927;28;51581;-47
2021/11/23 06:11:44;;;;;;;;;5.00;4.00;;;;;19.20;36.26;102449.56;5006721;28;51201;-49
2021/11/23 06:14:10;;;;;;;;;7.50;6.00;;;;;19.19;35.63;102459.69;5003221;27;52308;-51
2021/11/23 06:16:36;;;;;;;;;11.00;11.00;;;;;19.17;34.80;102450.75;4991356;28;51418;-51
2021/11/23 06:19:02;;;;;;;;;12.25;9.75;;;;;19.13;33.84;102446.66;4998765;28;51142;-47
2021/11/23 06:21:28;;;;;;;;;13.00;12.50;;;;;19.10;33.40;102454.41;5003936;28;51406;-45
2021/11/23 06:23:54;;;;;;;;;11.75;10.00;;;;;19.03;33.20;102452.34;4999584;27;51201;-48
2021/11/23 06:26:20;;;;;;;;;15.00;13.50;;;;;18.99;32.85;102455.63;5012286;28;51494;-48
2021/11/23 06:28:46;;;;;;;;;18.25;14.00;;;;;18.92;32.30;102455.44;5003069;28;51139;-47
2021/11/23 06:31:11;;;;;;;;;15.00;14.00;;;;;18.87;32.35;102452.38;5009860;27;51425;-46
2021/11/23 06:33:37;;;;;;;;;18.75;12.00;;;;;18.81;32.15;102446.69;5002321;27;52930;-45
2021/11/23 06:36:02;;;;;;;;;13.00;11.75;;;;;18.75;32.04;102445.50;4996499;27;51125;-49
2021/11/23 06:38:28;;;;;;;;;14.00;13.25;;;;;18.69;32.16;102443.44;5005476;28;51230;-49
2021/11/23 06:40:53;;;;;;;;;15.50;9.25;;;;;18.66;31.82;102438.31;5009095;27;51143;-48
2021/11/23 06:43:19;;;;;;;;;11.25;11.00;;;;;18.67;31.80;102445.50;5007284;27;51715;-51
2021/11/23 06:45:44;;;;;;;;;12.00;9.50;;;;;18.73;31.78;102448.41;4998461;27;51040;-48
2021/11/23 06:48:11;;;;;;;;;10.00;8.75;;;;;18.79;31.92;102446.88;4997431;27;51209;-53
2021/11/23 06:50:38;;;;;;;;;7.00;4.75;;;;;18.88;32.25;102453.22;5000541;28;51125;-48
2021/11/23 06:53:06;;;;;;;;;8.75;8.50;;;;;18.95;32.38;102463.31;4997166;28;51783;-51
2021/11/23 06:55:32;;;;;;;;;8.00;6.00;;;;;19.01;32.82;102465.38;5005918;28;51259;-51
2021/11/23 06:57:58;;;;;;;;;6.00;5.00;;;;;19.11;32.78;102467.94;5003322;27;51280;-51
2021/11/23 07:00:23;;;;;;;;;4.25;3.00;;;;;19.19;32.61;102473.44;4999981;28;51153;-49
2021/11/23 07:02:49;;;;;;;;;4.00;3.75;;;;;19.27;32.89;102475.28;4989312;27;51684;-45
2021/11/23 07:05:14;;;;;;;;;6.00;5.00;;;;;19.36;33.21;102476.13;5007835;27;51016;-49
2021/11/23 07:07:39;;;;;;;;;3.75;3.75;;;;;19.44;33.13;102468.72;5056899;28;51177;-50
2021/11/23 07:10:13;;;;;;;;;4.75;4.75;;;;;19.52;33.50;102474.22;5005268;28;51037;-52
2021/11/23 07:12:39;;;;;;;;;3.00;3.00;;;;;19.61;33.65;102477.81;5008145;28;51499;-47
2021/11/23 07:15:06;;;;;;;;;5.50;3.25;;;;;19.70;33.75;102478.66;5008684;27;51103;-53
2021/11/23 07:17:32;;;;;;;;;3.00;3.00;;;;;19.77;33.77;102474.13;5017422;28;51041;-45
2021/11/23 07:19:58;;;;;;;;;2.00;2.00;;;;;19.86;33.54;102478.56;5008797;27;51195;-53
2021/11/23 07:22:23;;;;;;;;;2.50;2.50;;;;;19.95;33.68;102482.16;5015468;27;51619;-52
2021/11/23 07:24:49;;;;;;;;;2.00;2.00;;;;;20.04;33.65;102486.56;4998492;28;51217;-51
2021/11/23 07:27:14;;;;;;;;;3.25;2.25;;;;;20.11;33.76;102488.44;4999930;28;51104;-50
2021/11/23 07:29:40;;;;;;;;;4.25;3.75;;;;;20.22;33.69;102489.03;4998094;28;51326;-49
2021/11/23 07:32:07;;;;;;;;;4.25;3.00;;;;;20.30;34.16;102497.25;5001380;28;52715;-49
2021/11/23 07:34:33;;;;;;;;;2.50;2.50;;;;;20.37;33.97;102499.09;4984347;27;51192;-50
2021/11/23 07:36:58;;;;;;;;;2.00;2.00;;;;;20.45;33.84;102496.31;5002238;27;51295;-50
2021/11/23 07:39:26;;;;;;;;;3.00;1.50;;;;;20.53;34.02;102517.44;5000872;28;51256;-48
2021/11/23 07:41:51;;;;;;;;;5.25;3.00;;;;;20.59;34.00;102513.09;5019764;27;51933;-49
2021/11/23 07:44:16;;;;;;;;;3.75;3.75;;;;;20.65;33.79;102523.38;5008129;28;51121;-47
2021/11/23 07:46:42;;;;;;;;;3.75;3.50;;;;;20.71;34.02;102526.25;4998774;28;51284;-47
2021/11/23 07:49:07;;;;;;;;;4.50;3.25;;;;;20.77;33.87;102521.06;5000559;28;51278;-48
2021/11/23 07:51:33;;;;;;;;;3.00;3.00;;;;;20.83;33.50;102537.69;5003561;28;51104;-48
2021/11/23 07:53:59;;;;;;;;;4.50;3.00;;;;;20.85;33.41;102538.38;5003791;28;51598;-49
2021/11/23 07:56:25;;;;;;;;;5.25;3.75;;;;;20.84;33.18;102546.78;5005220;28;51180;-48
2021/11/23 07:58:50;;;;;;;;;6.50;3.50;;;;;20.81;33.47;102536.16;5002369;27;51169;-51
2021/11/23 08:01:16;;;;;;;;;3.50;3.50;;;;;20.78;33.19;102542.91;4981490;28;52833;-53
2021/11/23 08:03:41;;;;;;;;;4.75;4.75;;;;;20.80;33.18;102542.72;5008800;27;51283;-52
2021/11/23 08:06:10;;;;;;;;;4.50;4.00;;;;;20.82;32.79;102537.88;5001756;28;51284;-50
2021/11/23 08:08:36;;;;;;;;;6.25;3.50;;;;;20.84;32.60;102538.53;5001240;28;51235;-48
2021/11/23 08:11:02;;;;;;;;;9.50;4.25;;;;;20.82;32.65;102537.88;5053242;27;50936;-53
2021/11/23 08:13:28;;;;;;;;;4.75;4.25;;;;;20.77;32.71;102538.44;5009234;27;51308;-52
2021/11/23 08:15:53;;;;;;;;;7.50;4.75;;;;;20.73;33.01;102546.19;5000677;27;51172;-51
2021/11/23 08:18:19;;;;;;;;;6.75;4.25;;;;;20.69;32.72;102544.00;5005162;27;50972;-52
2021/11/23 08:20:45;;;;;;;;;5.25;5.00;;;;;20.64;32.97;102544.56;4995010;28;51994;-52
2021/11/23 08:23:11;;;;;;;;;4.50;4.50;;;;;20.60;32.74;102548.69;5004627;28;51084;-51
2021/11/23 08:25:38;;;;;;;;;4.00;3.00;;;;;20.57;33.26;102548.22;5005060;28;51030;-51
2021/11/23 08:28:04;;;;;;;;;4.25;4.00;;;;;20.53;33.00;102547.72;5008817;28;51325;-51
2021/11/23 08:30:29;;;;;;;;;4.25;4.25;;;;;20.48;33.06;102550.16;4980470;28;51913;-49
2021/11/23 08:32:54;;;;;;;;;3.00;3.00;;;;;20.43;33.22;102556.22;5000039;28;51096;-50
2021/11/23 08:35:20;;;;;;;;;4.00;2.75;;;;;20.39;33.24;102551.19;5001494;28;51378;-52
2021/11/23 08:37:45;;;;;;;;;3.00;3.00;;;;;20.35;33.40;102547.13;5003049;27;51266;-48
2021/11/23 08:40:11;;;;;;;;;5.75;3.25;;;;;20.29;33.36;102543.16;5001569;28;51936;-50
2021/11/23 08:42:37;;;;;;;;;3.00;2.75;;;;;20.27;33.35;102555.41;5003263;28;51508;-53
2021/11/23 08:45:05;;;;;;;;;4.25;2.25;;;;;20.23;33.40;102549.41;5004782;28;50992;-46
2021/11/23 08:47:30;;;;;;;;;6.25;3.50;;;;;20.19;33.54;102548.03;5008705;28;51035;-49
2021/11/23 08:49:56;;;;;;;;;4.00;3.50;;;;;20.15;33.07;102552.19;5003380;27;51816;-51
2021/11/23 08:52:26;;;;;;;;;4.00;2.75;;;;;20.12;33.93;102547.06;5004571;28;51117;-47
2021/11/23 08:54:51;;;;;;;;;4.25;4.25;;;;;20.09;33.40;102558.41;5002543;28;51147;-52
2021/11/23 08:57:17;;;;;;;;;4.00;4.00;;;;;20.05;33.59;102552.41;5001975;28;51088;-52
2021/11/23 08:59:43;;;;;;;;;3.25;3.25;;;;;20.02;33.87;102544.53;5002358;28;52007;-50
2021/11/23 09:02:13;;;;;;;;;3.25;3.25;;;;;20.00;34.09;102542.97;4999844;28;51152;-53
2021/11/23 09:04:40;;;;;;;;;3.00;2.00;;;;;19.97;34.25;102537.81;5004726;28;51108;-50
2021/11/23 09:07:08;;;;;;;;;3.50;2.25;;;;;19.95;33.97;102548.16;5007866;28;51521;-50
2021/11/23 09:09:37;;;;;;;;;3.25;3.25;;;;;19.93;33.92;102551.09;4998942;28;52861;-49
2021/11/23 09:12:04;;;;;;;;;2.50;2.00;;;;;19.89;34.17;102545.06;4997045;28;51112;-50
2021/11/23 09:14:30;;;;;;;;;3.00;1.50;;;;;19.87;34.19;102538.88;4993421;28;51078;-49
2021/11/23 09:16:57;;;;;;;;;3.00;2.00;;;;;19.85;33.88;102546.47;4999209;28;51109;-50
2021/11/23 09:19:23;;;;;;;;;4.00;2.25;;;;;19.82;34.03;102545.97;5002281;27;51928;-50
2021/11/23 09:21:49;;;;;;;;;4.50;3.00;;;;;19.80;34.17;102542.50;5009328;27;51017;-50
2021/11/23 09:24:14;;;;;;;;;4.25;2.75;;;;;19.78;34.29;102550.94;5008480;28;51205;-49
2021/11/23 09:26:40;;;;;;;;;1.75;1.00;;;;;19.76;34.25;102554.91;4986322;28;51955;-49
2021/11/23 09:29:05;;;;;;;;;2.75;2.00;;;;;19.75;34.35;102561.44;4997245;28;51222;-48
2021/11/23 09:31:31;;;;;;;;;2.50;2.50;;;;;19.73;34.13;102564.38;5004587;28;51199;-49
2021/11/23 09:33:56;;;;;;;;;3.00;1.75;;;;;19.72;34.28;102564.56;5003131;28;51523;-48
2021/11/23 09:36:21;;;;;;;;;3.00;2.00;;;;;19.70;34.43;102558.38;5006616;28;51206;-50
2021/11/23 09:38:47;;;;;;;;;2.00;2.00;;;;;19.70;34.30;102563.88;5000123;28;51070;-48
2021/11/23 09:41:13;;;;;;;;;3.00;3.00;;;;;19.67;34.27;102558.72;5004841;27;51050;-46
2021/11/23 09:43:41;;;;;;;;;4.00;3.00;;;;;19.66;34.37;102560.59;5003672;28;51112;-51
2021/11/23 09:46:08;;;;;;;;;3.50;1.25;;;;;19.65;34.44;102552.53;5005644;28;51225;-51
2021/11/23 09:48:34;;;;;;;;;1.75;1.00;;;;;19.65;34.58;102552.53;5002016;28;51308;-50
2021/11/23 09:51:00;;;;;;;;;3.00;3.00;;;;;19.65;34.59;102552.53;4997781;28;51438;-51
2021/11/23 09:53:27;;;;;;;;;2.25;2.00;;;;;19.67;34.92;102558.72;5000569;28;51298;-51
2021/11/23 09:55:53;;;;;;;;;2.75;2.00;;;;;19.66;34.38;102555.13;5002801;27;51344;-46
2021/11/23 09:58:21;;;;;;;;;2.25;2.25;;;;;19.67;34.57;102561.47;4998461;28;51064;-50
2021/11/23 10:00:49;;;;;;;;;2.75;2.25;;;;;19.67;34.46;102572.47;5005510;27;51116;-52
2021/11/23 10:03:25;;;;;;;;;2.00;2.00;;;;;19.68;34.49;102560.44;5002975;28;51365;-50
2021/11/23 10:05:51;;;;;;;;;2.00;2.00;;;;;19.70;34.36;102555.63;4998132;28;51130;-51
2021/11/23 10:08:19;;;;;;;;;1.00;1.00;;;;;19.71;34.29;102566.47;5003621;28;51288;-49
2021/11/23 10:10:52;;;;;;;;;2.75;0.75;;;;;19.73;34.23;102547.03;5001323;27;50997;-48
2021/11/23 10:13:20;;;;;;;;;2.25;2.00;;;;;19.75;34.37;102553.19;5002463;28;51210;-49
2021/11/23 10:15:47;;;;;;;;;1.50;1.00;;;;;19.77;34.03;102548.38;5003348;28;51366;-49
2021/11/23 10:18:15;;;;;;;;;4.00;2.75;;;;;19.79;34.27;102557.31;5002190;27;51844;-50
2021/11/23 10:20:43;;;;;;;;;0.75;0.75;;;;;19.80;34.12;102550.75;5003232;27;51198;-49
2021/11/23 10:23:37;;;;;;;;;2.00;2.00;;;;;19.82;33.99;102548.72;4996815;28;51088;-51
2021/11/23 10:26:11;;;;;;;;;1.50;1.50;;;;;19.85;34.25;102545.59;5006017;28;51006;-46
2021/11/23 10:28:37;;;;;;;;;1.00;1.00;;;;;19.85;33.88;102545.59;5005291;27;51920;-46
2021/11/23 10:31:06;;;;;;;;;1.00;1.00;;;;;19.87;33.88;102549.03;5002422;28;51158;-49
2021/11/23 10:33:33;;;;;;;;;1.25;1.25;;;;;19.89;33.79;102546.97;4995217;28;51301;-51
2021/11/23 10:36:00;;;;;;;;;1.50;1.00;;;;;19.91;33.86;102550.41;5003338;28;51237;-48
2021/11/23 10:38:27;;;;;;;;;1.00;1.00;;;;;19.92;34.00;102548.53;4999537;28;52579;-46
2021/11/23 10:40:54;;;;;;;;;3.00;1.00;;;;;19.94;33.64;102543.69;5007039;28;51326;-51
2021/11/23 10:43:22;;;;;;;;;2.00;0.75;;;;;19.94;33.99;102536.28;4999000;28;51168;-50
2021/11/23 10:45:51;;;;;;;;;1.75;1.00;;;;;19.97;34.09;102535.06;5002567;27;51175;-50
2021/11/23 10:48:20;;;;;;;;;1.00;1.00;;;;;19.97;34.04;102537.81;5005246;28;51858;-49
2021/11/23 10:51:11;;;;;;;;;2.00;2.00;;;;;19.98;33.82;102537.66;4997837;28;51087;-51
2021/11/23 10:53:41;;;;;;;;;1.00;1.00;;;;;19.99;33.69;102525.59;4999015;28;51116;-49
2021/11/23 10:56:10;;;;;;;;;1.75;1.75;;;;;20.01;33.98;102531.81;5003810;28;51300;-47
2021/11/23 10:58:36;;;;;;;;;2.00;2.00;;;;;20.01;33.58;102518.06;5006446;28;51972;-49
2021/11/23 11:01:04;;;;;;;;;1.75;1.75;;;;;20.02;33.53;102518.91;5009252;27;51093;-50
2021/11/23 11:03:31;;;;;;;;;1.00;1.00;;;;;20.03;33.83;102518.72;5002325;28;51127;-49
2021/11/23 11:05:59;;;;;;;;;1.00;1.00;;;;;20.03;33.71;102510.47;4997283;28;50950;-50
2021/11/23 11:08:27;;;;;;;;;2.25;2.00;;;;;20.04;33.52;102506.69;4991731;28;51894;-47
2021/11/23 11:10:54;;;;;;;;;1.75;1.75;;;;;20.06;33.86;102506.50;4995516;28;51289;-51
2021/11/23 11:13:22;;;;;;;;;2.75;1.25;;;;;20.06;33.59;102496.34;5009104;28;51838;-49
2021/11/23 11:15:53;;;;;;;;;2.00;0.75;;;;;20.09;33.61;102501.47;5001607;28;51104;-51
2021/11/23 11:18:21;;;;;;;;;2.75;2.00;;;;;20.16;33.53;102494.22;4999382;28;51868;-49
2021/11/23 11:20:47;;;;;;;;;1.50;1.00;;;;;20.30;33.38;102494.50;5002047;28;51448;-50